sensor_id;sensor_type;location;lat;lon;timestamp;pressure;altitude;pressure_sealevel;temperature;humidity
38880;BME280;25887;30.194;-97.880;2023-11-19T00:02:12;98551.91;;;21.76;56.19
38880;BME280;25887;30.194;-97.880;2023-11-19T00:04:39;98565.91;;;21.75;56.10
38880;BME280;25887;30.194;-97.880;2023-11-19T00:07:05;98564.22;;;21.74;56.58
38880;BME280;25887;30.194;-97.880;2023-11-19T00:09:36;98558.97;;;21.74;56.38
38880;BME280;25887;30.194;-97.880;2023-11-19T00:12:04;98557.28;;;21.73;56.57
38880;BME280;25887;30.194;-97.880;2023-11-19T00:14:30;98551.19;;;21.72;56.04
38880;BME280;25887;30.194;-97.880;2023-11-19T00:16:57;98549.53;;;21.69;56.09
38880;BME280;25887;30.194;-97.880;2023-11-19T00:19:23;98554.78;;;21.69;56.17
38880;BME280;25887;30.194;-97.880;2023-11-19T00:21:49;98548.69;;;21.69;56.14
38880;BME280;25887;30.194;-97.880;2023-11-19T00:24:23;98552.22;;;21.68;56.59
38880;BME280;25887;30.194;-97.880;2023-11-19T00:26:50;98548.75;;;21.67;56.21
38880;BME280;25887;30.194;-97.880;2023-11-19T00:29:16;98550.59;;;21.65;56.64
38880;BME280;25887;30.194;-97.880;2023-11-19T00:31:44;98548.91;;;21.64;56.43
38880;BME280;25887;30.194;-97.880;2023-11-19T00:34:10;98541.97;;;21.63;56.32
38880;BME280;25887;30.194;-97.880;2023-11-19T00:36:36;98541.09;;;21.63;56.51
38880;BME280;25887;30.194;-97.880;2023-11-19T00:39:03;98545.47;;;21.62;56.52
38880;BME280;25887;30.194;-97.880;2023-11-19T00:41:29;98548.16;;;21.61;56.19
38880;BME280;25887;30.194;-97.880;2023-11-19T00:43:55;98540.47;;;21.58;56.11
38880;BME280;25887;30.194;-97.880;2023-11-19T00:46:21;98544.00;;;21.57;56.35
38880;BME280;25887;30.194;-97.880;2023-11-19T00:48:47;98546.66;;;21.55;56.02
38880;BME280;25887;30.194;-97.880;2023-11-19T00:51:13;98545.88;;;21.53;55.90
38880;BME280;25887;30.194;-97.880;2023-11-19T00:53:40;98551.94;;;21.54;56.23
38880;BME280;25887;30.194;-97.880;2023-11-19T00:56:06;98560.72;;;21.53;56.10
38880;BME280;25887;30.194;-97.880;2023-11-19T00:58:32;98552.09;;;21.51;56.20
38880;BME280;25887;30.194;-97.880;2023-11-19T01:00:59;98546.94;;;21.49;55.81
38880;BME280;25887;30.194;-97.880;2023-11-19T01:03:25;98555.69;;;21.48;55.89
38880;BME280;25887;30.194;-97.880;2023-11-19T01:05:51;98555.72;;;21.47;56.25
38880;BME280;25887;30.194;-97.880;2023-11-19T01:08:18;98560.97;;;21.47;56.13
38880;BME280;25887;30.194;-97.880;2023-11-19T01:10:44;98553.19;;;21.45;55.97
38880;BME280;25887;30.194;-97.880;2023-11-19T01:13:10;98554.94;;;21.45;55.97
38880;BME280;25887;30.194;-97.880;2023-11-19T01:15:37;98563.63;;;21.45;55.83
38880;BME280;25887;30.194;-97.880;2023-11-19T01:18:03;98557.56;;;21.45;55.79
38880;BME280;25887;30.194;-97.880;2023-11-19T01:20:30;98561.03;;;21.45;55.81
38880;BME280;25887;30.194;-97.880;2023-11-19T01:22:56;98560.19;;;21.45;55.87
38880;BME280;25887;30.194;-97.880;2023-11-19T01:25:23;98563.63;;;21.45;55.91
38880;BME280;25887;30.194;-97.880;2023-11-19T01:27:49;98561.94;;;21.44;55.84
38880;BME280;25887;30.194;-97.880;2023-11-19T01:30:15;98559.34;;;21.44;55.92
38880;BME280;25887;30.194;-97.880;2023-11-19T01:32:42;98568.09;;;21.43;55.92
38880;BME280;25887;30.194;-97.880;2023-11-19T01:35:08;98566.31;;;21.44;56.07
38880;BME280;25887;30.194;-97.880;2023-11-19T01:37:34;98574.16;;;21.44;55.71
38880;BME280;25887;30.194;-97.880;2023-11-19T01:40:02;98570.78;;;21.41;56.30
38880;BME280;25887;30.194;-97.880;2023-11-19T01:42:40;98569.84;;;21.42;56.13
38880;BME280;25887;30.194;-97.880;2023-11-19T01:45:07;98570.84;;;21.40;56.04
38880;BME280;25887;30.194;-97.880;2023-11-19T01:47:35;98567.31;;;21.41;55.98
38880;BME280;25887;30.194;-97.880;2023-11-19T01:50:03;98568.22;;;21.40;55.92
38880;BME280;25887;30.194;-97.880;2023-11-19T01:55:19;98571.63;;;21.42;56.32
38880;BME280;25887;30.194;-97.880;2023-11-19T01:57:47;98566.56;;;21.37;56.44
38880;BME280;25887;30.194;-97.880;2023-11-19T02:00:13;98568.47;;;21.34;55.98
38880;BME280;25887;30.194;-97.880;2023-11-19T02:02:43;98567.66;;;21.32;56.53
38880;BME280;25887;30.194;-97.880;2023-11-19T02:05:11;98574.72;;;21.30;56.46
38880;BME280;25887;30.194;-97.880;2023-11-19T02:07:41;98576.56;;;21.28;56.15
38880;BME280;25887;30.194;-97.880;2023-11-19T02:10:07;98571.31;;;21.28;56.53
38880;BME280;25887;30.194;-97.880;2023-11-19T02:12:56;98578.25;;;21.29;56.63
38880;BME280;25887;30.194;-97.880;2023-11-19T02:15:23;98568.81;;;21.25;56.70
38880;BME280;25887;30.194;-97.880;2023-11-19T02:17:52;98572.28;;;21.25;56.58
38880;BME280;25887;30.194;-97.880;2023-11-19T02:20:18;98574.03;;;21.25;56.75
38880;BME280;25887;30.194;-97.880;2023-11-19T02:22:51;98580.16;;;21.24;56.55
38880;BME280;25887;30.194;-97.880;2023-11-19T02:25:28;98574.03;;;21.25;56.55
38880;BME280;25887;30.194;-97.880;2023-11-19T02:28:16;98571.44;;;21.25;56.46
38880;BME280;25887;30.194;-97.880;2023-11-19T02:30:47;98570.53;;;21.24;56.44
38880;BME280;25887;30.194;-97.880;2023-11-19T02:33:14;98569.75;;;21.22;56.63
38880;BME280;25887;30.194;-97.880;2023-11-19T02:35:40;98573.28;;;21.21;56.66
38880;BME280;25887;30.194;-97.880;2023-11-19T02:38:07;98574.28;;;21.19;56.75
38880;BME280;25887;30.194;-97.880;2023-11-19T02:40:33;98578.59;;;21.20;56.79
38880;BME280;25887;30.194;-97.880;2023-11-19T02:42:59;98576.03;;;21.18;57.03
38880;BME280;25887;30.194;-97.880;2023-11-19T02:45:26;98569.16;;;21.15;56.71
38880;BME280;25887;30.194;-97.880;2023-11-19T02:47:54;98568.38;;;21.13;56.85
38880;BME280;25887;30.194;-97.880;2023-11-19T02:50:23;98566.75;;;21.11;56.72
38880;BME280;25887;30.194;-97.880;2023-11-19T02:52:54;98566.81;;;21.09;56.80
38880;BME280;25887;30.194;-97.880;2023-11-19T02:55:24;98565.09;;;21.08;56.72
38880;BME280;25887;30.194;-97.880;2023-11-19T02:57:53;98558.16;;;21.07;57.00
38880;BME280;25887;30.194;-97.880;2023-11-19T03:00:22;98552.94;;;21.07;56.81
38880;BME280;25887;30.194;-97.880;2023-11-19T03:03:03;98563.38;;;21.07;56.82
38880;BME280;25887;30.194;-97.880;2023-11-19T03:05:43;98567.75;;;21.07;56.97
38880;BME280;25887;30.194;-97.880;2023-11-19T03:08:10;98569.47;;;21.08;56.71
38880;BME280;25887;30.194;-97.880;2023-11-19T03:10:36;98571.22;;;21.07;56.71
38880;BME280;25887;30.194;-97.880;2023-11-19T03:13:02;98564.31;;;21.06;57.34
38880;BME280;25887;30.194;-97.880;2023-11-19T03:15:28;98565.09;;;21.08;57.17
38880;BME280;25887;30.194;-97.880;2023-11-19T03:17:55;98563.38;;;21.07;57.11
38880;BME280;25887;30.194;-97.880;2023-11-19T03:20:21;98559.00;;;21.08;57.00
38880;BME280;25887;30.194;-97.880;2023-11-19T03:22:49;98567.75;;;21.07;56.99
38880;BME280;25887;30.194;-97.880;2023-11-19T03:25:17;98566.00;;;21.07;57.25
38880;BME280;25887;30.194;-97.880;2023-11-19T03:27:43;98567.75;;;21.07;57.28
38880;BME280;25887;30.194;-97.880;2023-11-19T03:30:10;98574.75;;;21.06;56.94
38880;BME280;25887;30.194;-97.880;2023-11-19T03:32:37;98569.53;;;21.06;57.34
38880;BME280;25887;30.194;-97.880;2023-11-19T03:35:05;98570.50;;;21.04;57.31
38880;BME280;25887;30.194;-97.880;2023-11-19T03:37:36;98565.28;;;21.04;57.34
38880;BME280;25887;30.194;-97.880;2023-11-19T03:40:03;98570.50;;;21.04;57.22
38880;BME280;25887;30.194;-97.880;2023-11-19T03:42:38;98575.66;;;21.05;57.30
38880;BME280;25887;30.194;-97.880;2023-11-19T03:45:08;98565.34;;;21.02;57.27
38880;BME280;25887;30.194;-97.880;2023-11-19T03:47:35;98568.88;;;21.01;57.10
38880;BME280;25887;30.194;-97.880;2023-11-19T03:50:02;98568.00;;;21.01;57.16
38880;BME280;25887;30.194;-97.880;2023-11-19T03:52:29;98565.44;;;20.99;57.17
38880;BME280;25887;30.194;-97.880;2023-11-19T03:54:55;98576.81;;;20.98;57.46
38880;BME280;25887;30.194;-97.880;2023-11-19T03:57:23;98567.34;;;20.96;57.13
38880;BME280;25887;30.194;-97.880;2023-11-19T03:59:54;98557.91;;;20.92;57.20
38880;BME280;25887;30.194;-97.880;2023-11-19T04:02:21;98560.53;;;20.92;57.19
38880;BME280;25887;30.194;-97.880;2023-11-19T04:04:47;98553.66;;;20.89;57.24
38880;BME280;25887;30.194;-97.880;2023-11-19T04:07:14;98554.66;;;20.86;57.20
38880;BME280;25887;30.194;-97.880;2023-11-19T04:09:41;98547.72;;;20.85;57.53
38880;BME280;25887;30.194;-97.880;2023-11-19T04:12:07;98549.53;;;20.83;57.43
38880;BME280;25887;30.194;-97.880;2023-11-19T04:14:34;98550.44;;;20.82;57.47
38880;BME280;25887;30.194;-97.880;2023-11-19T04:17:00;98550.50;;;20.81;57.46
38880;BME280;25887;30.194;-97.880;2023-11-19T04:19:26;98550.56;;;20.79;57.57
38880;BME280;25887;30.194;-97.880;2023-11-19T04:21:52;98551.50;;;20.78;57.47
38880;BME280;25887;30.194;-97.880;2023-11-19T04:24:18;98550.63;;;20.78;57.20
38880;BME280;25887;30.194;-97.880;2023-11-19T04:26:47;98546.38;;;20.75;57.50
38880;BME280;25887;30.194;-97.880;2023-11-19T04:29:32;98547.22;;;20.76;57.64
38880;BME280;25887;30.194;-97.880;2023-11-19T04:32:00;98541.22;;;20.74;57.59
38880;BME280;25887;30.194;-97.880;2023-11-19T04:34:27;98546.44;;;20.74;57.46
38880;BME280;25887;30.194;-97.880;2023-11-19T04:36:53;98544.78;;;20.71;57.65
38880;BME280;25887;30.194;-97.880;2023-11-19T04:39:19;98546.56;;;20.71;57.65
38880;BME280;25887;30.194;-97.880;2023-11-19T04:41:49;98542.22;;;20.70;57.82
38880;BME280;25887;30.194;-97.880;2023-11-19T04:44:19;98538.75;;;20.69;57.84
38880;BME280;25887;30.194;-97.880;2023-11-19T04:46:46;98548.34;;;20.69;57.79
38880;BME280;25887;30.194;-97.880;2023-11-19T04:49:13;98538.03;;;20.66;57.69
38880;BME280;25887;30.194;-97.880;2023-11-19T04:51:40;98537.97;;;20.67;57.46
38880;BME280;25887;30.194;-97.880;2023-11-19T04:54:08;98528.50;;;20.65;57.65
38880;BME280;25887;30.194;-97.880;2023-11-19T04:56:38;98533.72;;;20.65;57.64
38880;BME280;25887;30.194;-97.880;2023-11-19T04:59:06;98527.66;;;20.64;57.54
38880;BME280;25887;30.194;-97.880;2023-11-19T05:01:35;98525.97;;;20.63;57.71
38880;BME280;25887;30.194;-97.880;2023-11-19T05:04:02;98522.50;;;20.63;57.72
38880;BME280;25887;30.194;-97.880;2023-11-19T05:06:32;98516.47;;;20.61;57.58
38880;BME280;25887;30.194;-97.880;2023-11-19T05:08:59;98515.63;;;20.60;57.72
38880;BME280;25887;30.194;-97.880;2023-11-19T05:11:34;98509.56;;;20.59;57.53
38880;BME280;25887;30.194;-97.880;2023-11-19T05:14:01;98509.63;;;20.58;57.78
38880;BME280;25887;30.194;-97.880;2023-11-19T05:16:31;98507.97;;;20.55;57.63
38880;BME280;25887;30.194;-97.880;2023-11-19T05:18:58;98508.84;;;20.56;57.80
38880;BME280;25887;30.194;-97.880;2023-11-19T05:21:25;98505.41;;;20.54;57.59
38880;BME280;25887;30.194;-97.880;2023-11-19T05:23:51;98508.09;;;20.52;57.69
38880;BME280;25887;30.194;-97.880;2023-11-19T05:26:21;98499.47;;;20.50;58.02
38880;BME280;25887;30.194;-97.880;2023-11-19T05:28:47;98507.28;;;20.50;57.66
38880;BME280;25887;30.194;-97.880;2023-11-19T05:31:39;98507.22;;;20.52;57.93
38880;BME280;25887;30.194;-97.880;2023-11-19T06:30:58;98462.53;;;19.91;58.12
38880;BME280;25887;30.194;-97.880;2023-11-19T06:33:24;98464.56;;;19.83;58.12
38880;BME280;25887;30.194;-97.880;2023-11-19T06:35:51;98456.00;;;19.79;58.45
38880;BME280;25887;30.194;-97.880;2023-11-19T06:38:17;98453.47;;;19.78;58.29
38880;BME280;25887;30.194;-97.880;2023-11-19T06:40:44;98444.94;;;19.72;58.29
38880;BME280;25887;30.194;-97.880;2023-11-19T06:43:11;98439.78;;;19.71;58.46
38880;BME280;25887;30.194;-97.880;2023-11-19T06:45:37;98439.03;;;19.67;58.48
38880;BME280;25887;30.194;-97.880;2023-11-19T06:48:16;98431.41;;;19.63;58.63
38880;BME280;25887;30.194;-97.880;2023-11-19T06:51:04;98429.63;;;19.63;58.51
38880;BME280;25887;30.194;-97.880;2023-11-19T06:53:30;98429.00;;;19.57;58.47
38880;BME280;25887;30.194;-97.880;2023-11-19T06:55:57;98422.97;;;19.55;58.52
38880;BME280;25887;30.194;-97.880;2023-11-19T06:58:25;98416.09;;;19.52;58.63
38880;BME280;25887;30.194;-97.880;2023-11-19T07:00:51;98406.63;;;19.49;58.68
38880;BME280;25887;30.194;-97.880;2023-11-19T07:03:17;98398.94;;;19.46;58.84
38880;BME280;25887;30.194;-97.880;2023-11-19T07:05:43;98399.03;;;19.43;58.70
38880;BME280;25887;30.194;-97.880;2023-11-19T07:08:09;98398.25;;;19.41;58.81
38880;BME280;25887;30.194;-97.880;2023-11-19T07:10:38;98401.81;;;19.39;58.84
38880;BME280;25887;30.194;-97.880;2023-11-19T07:13:04;98395.00;;;19.35;59.03
38880;BME280;25887;30.194;-97.880;2023-11-19T07:15:31;98395.13;;;19.32;59.07
38880;BME280;25887;30.194;-97.880;2023-11-19T07:17:58;98390.84;;;19.29;58.97
38880;BME280;25887;30.194;-97.880;2023-11-19T07:20:25;98394.34;;;19.28;58.96
38880;BME280;25887;30.194;-97.880;2023-11-19T07:23:01;98390.00;;;19.29;59.08
38880;BME280;25887;30.194;-97.880;2023-11-19T07:25:28;98392.78;;;19.24;59.09
38880;BME280;25887;30.194;-97.880;2023-11-19T07:27:56;98394.56;;;19.22;58.89
38880;BME280;25887;30.194;-97.880;2023-11-19T07:30:37;98388.56;;;19.20;59.00
38880;BME280;25887;30.194;-97.880;2023-11-19T07:33:04;98404.31;;;19.17;59.16
38880;BME280;25887;30.194;-97.880;2023-11-19T07:35:31;98392.19;;;19.16;59.09
38880;BME280;25887;30.194;-97.880;2023-11-19T07:37:57;98385.31;;;19.13;59.15
38880;BME280;25887;30.194;-97.880;2023-11-19T07:40:24;98401.00;;;19.12;59.01
38880;BME280;25887;30.194;-97.880;2023-11-19T07:42:51;98384.53;;;19.11;59.22
38880;BME280;25887;30.194;-97.880;2023-11-19T07:45:17;98386.28;;;19.11;59.28
38880;BME280;25887;30.194;-97.880;2023-11-19T07:48:30;98379.25;;;19.13;59.14
38880;BME280;25887;30.194;-97.880;2023-11-19T07:51:29;98377.78;;;19.06;59.25
38880;BME280;25887;30.194;-97.880;2023-11-19T07:54:22;98384.53;;;19.11;59.22
38880;BME280;25887;30.194;-97.880;2023-11-19T07:59:43;98371.78;;;19.04;59.09
38880;BME280;25887;30.194;-97.880;2023-11-19T08:26:08;98347.81;;;18.94;59.34
38880;BME280;25887;30.194;-97.880;2023-11-19T08:32:30;98348.66;;;18.95;59.46
38880;BME280;25887;30.194;-97.880;2023-11-19T08:59:41;98328.78;;;18.92;59.85
38880;BME280;25887;30.194;-97.880;2023-11-19T09:02:07;98327.88;;;18.93;60.27
38880;BME280;25887;30.194;-97.880;2023-11-19T09:04:34;98332.97;;;18.96;59.97
38880;BME280;25887;30.194;-97.880;2023-11-19T09:07:01;98325.09;;;18.98;60.16
38880;BME280;25887;30.194;-97.880;2023-11-19T09:09:42;98312.91;;;19.00;59.94
38880;BME280;25887;30.194;-97.880;2023-11-19T09:12:08;98330.22;;;19.01;59.96
38880;BME280;25887;30.194;-97.880;2023-11-19T09:14:34;98330.16;;;19.02;60.20
38880;BME280;25887;30.194;-97.880;2023-11-19T09:17:00;98325.81;;;19.03;60.13
38880;BME280;25887;30.194;-97.880;2023-11-19T09:19:27;98320.53;;;19.04;60.19
38880;BME280;25887;30.194;-97.880;2023-11-19T09:21:53;98324.00;;;19.05;60.24
38880;BME280;25887;30.194;-97.880;2023-11-19T09:24:20;98320.47;;;19.06;60.38
38880;BME280;25887;30.194;-97.880;2023-11-19T09:26:46;98310.88;;;19.08;60.33
38880;BME280;25887;30.194;-97.880;2023-11-19T09:29:12;98315.19;;;19.09;60.15
38880;BME280;25887;30.194;-97.880;2023-11-19T09:31:40;98309.00;;;19.11;60.14
38880;BME280;25887;30.194;-97.880;2023-11-19T09:34:06;98303.84;;;19.10;60.42
38880;BME280;25887;30.194;-97.880;2023-11-19T09:36:35;98303.00;;;19.09;60.21
38880;BME280;25887;30.194;-97.880;2023-11-19T09:39:02;98292.66;;;19.08;60.25
38880;BME280;25887;30.194;-97.880;2023-11-19T09:41:30;98276.13;;;19.09;60.41
38880;BME280;25887;30.194;-97.880;2023-11-19T09:43:57;98275.34;;;19.07;60.46
38880;BME280;25887;30.194;-97.880;2023-11-19T09:46:23;98273.59;;;19.07;60.35
38880;BME280;25887;30.194;-97.880;2023-11-19T09:48:53;98271.00;;;19.06;60.59
38880;BME280;25887;30.194;-97.880;2023-11-19T09:51:22;98278.78;;;19.07;60.52
38880;BME280;25887;30.194;-97.880;2023-11-19T09:54:12;98278.72;;;19.09;60.45
38880;BME280;25887;30.194;-97.880;2023-11-19T09:56:46;98271.91;;;19.05;60.57
38880;BME280;25887;30.194;-97.880;2023-11-19T09:59:14;98267.63;;;19.04;60.57
38880;BME280;25887;30.194;-97.880;2023-11-19T10:01:51;98262.41;;;19.04;60.65
38880;BME280;25887;30.194;-97.880;2023-11-19T10:04:19;98261.63;;;19.02;60.53
38880;BME280;25887;30.194;-97.880;2023-11-19T10:06:45;98266.84;;;19.02;60.55
38880;BME280;25887;30.194;-97.880;2023-11-19T10:09:12;98268.59;;;19.01;60.58
38880;BME280;25887;30.194;-97.880;2023-11-19T10:12:07;98264.94;;;19.05;60.61
38880;BME280;25887;30.194;-97.880;2023-11-19T10:14:35;98268.53;;;19.03;60.75
38880;BME280;25887;30.194;-97.880;2023-11-19T10:17:07;98270.28;;;19.02;60.65
38880;BME280;25887;30.194;-97.880;2023-11-19T10:19:33;98268.53;;;19.03;60.78
38880;BME280;25887;30.194;-97.880;2023-11-19T10:22:07;98260.72;;;19.03;60.51
38880;BME280;25887;30.194;-97.880;2023-11-19T10:24:45;98258.09;;;19.03;60.78
38880;BME280;25887;30.194;-97.880;2023-11-19T10:27:24;98251.16;;;19.03;60.66
38880;BME280;25887;30.194;-97.880;2023-11-19T10:29:59;98246.06;;;19.00;60.93
38880;BME280;25887;30.194;-97.880;2023-11-19T10:32:26;98257.31;;;19.01;60.72
38880;BME280;25887;30.194;-97.880;2023-11-19T10:34:58;98254.72;;;19.01;60.89
38880;BME280;25887;30.194;-97.880;2023-11-19T10:37:30;98252.13;;;19.01;60.79
38880;BME280;25887;30.194;-97.880;2023-11-19T10:40:01;98252.13;;;19.01;60.78
38880;BME280;25887;30.194;-97.880;2023-11-19T10:42:27;98240.84;;;19.00;60.70
38880;BME280;25887;30.194;-97.880;2023-11-19T10:44:53;98244.31;;;19.01;60.88
38880;BME280;25887;30.194;-97.880;2023-11-19T10:47:19;98240.78;;;19.02;60.93
38880;BME280;25887;30.194;-97.880;2023-11-19T10:49:52;98235.66;;;19.00;60.94
38880;BME280;25887;30.194;-97.880;2023-11-19T10:52:19;98233.91;;;19.01;60.93
38880;BME280;25887;30.194;-97.880;2023-11-19T10:54:51;98227.84;;;19.00;60.93
38880;BME280;25887;30.194;-97.880;2023-11-19T10:57:20;98227.88;;;18.99;60.99
38880;BME280;25887;30.194;-97.880;2023-11-19T10:59:56;98230.47;;;18.99;60.73
38880;BME280;25887;30.194;-97.880;2023-11-19T11:02:34;98222.72;;;18.97;60.98
38880;BME280;25887;30.194;-97.880;2023-11-19T11:05:01;98217.38;;;19.02;60.60
38880;BME280;25887;30.194;-97.880;2023-11-19T11:07:43;98217.56;;;18.96;60.89
38880;BME280;25887;30.194;-97.880;2023-11-19T11:10:11;98206.47;;;18.90;60.77
38880;BME280;25887;30.194;-97.880;2023-11-19T11:12:40;98217.78;;;18.89;60.77
38880;BME280;25887;30.194;-97.880;2023-11-19T11:15:11;98223.91;;;18.88;60.97
38880;BME280;25887;30.194;-97.880;2023-11-19T11:17:41;98223.91;;;18.88;60.81
38880;BME280;25887;30.194;-97.880;2023-11-19T11:20:10;98223.19;;;18.85;61.14
38880;BME280;25887;30.194;-97.880;2023-11-19T11:23:19;98230.03;;;18.87;60.78
38880;BME280;25887;30.194;-97.880;2023-11-19T11:29:04;98228.53;;;18.80;60.79
38880;BME280;25887;30.194;-97.880;2023-11-19T11:39:57;98242.06;;;18.65;60.65
38880;BME280;25887;30.194;-97.880;2023-11-19T11:45:10;98244.78;;;18.62;60.72
38880;BME280;25887;30.194;-97.880;2023-11-19T11:50:53;98250.19;;;18.56;60.67
38880;BME280;25887;30.194;-97.880;2023-11-19T11:53:22;98253.00;;;18.50;60.84
38880;BME280;25887;30.194;-97.880;2023-11-19T11:55:54;98253.09;;;18.47;60.82
38880;BME280;25887;30.194;-97.880;2023-11-19T11:58:58;98255.84;;;18.42;60.91
38880;BME280;25887;30.194;-97.880;2023-11-19T12:01:26;98257.72;;;18.38;60.95
38880;BME280;25887;30.194;-97.880;2023-11-19T12:03:58;98274.22;;;18.37;60.90
38880;BME280;25887;30.194;-97.880;2023-11-19T12:06:27;98271.72;;;18.34;60.86
38880;BME280;25887;30.194;-97.880;2023-11-19T12:08:59;98267.41;;;18.33;60.78
38880;BME280;25887;30.194;-97.880;2023-11-19T12:11:26;98270.13;;;18.30;60.96
38880;BME280;25887;30.194;-97.880;2023-11-19T12:13:56;98271.91;;;18.28;60.86
38880;BME280;25887;30.194;-97.880;2023-11-19T12:16:43;98277.06;;;18.30;60.77
38880;BME280;25887;30.194;-97.880;2023-11-19T12:19:28;98261.56;;;18.27;60.47
38880;BME280;25887;30.194;-97.880;2023-11-19T12:22:10;98270.25;;;18.26;61.29
38880;BME280;25887;30.194;-97.880;2023-11-19T12:25:05;98274.63;;;18.25;60.91
38880;BME280;25887;30.194;-97.880;2023-11-19T12:28:21;98272.06;;;18.24;60.88
38880;BME280;25887;30.194;-97.880;2023-11-19T12:30:48;98267.91;;;18.18;60.82
38880;BME280;25887;30.194;-97.880;2023-11-19T12:33:15;98261.88;;;18.18;60.83
38880;BME280;25887;30.194;-97.880;2023-11-19T12:35:45;98264.47;;;18.18;61.10
38880;BME280;25887;30.194;-97.880;2023-11-19T12:38:19;98267.00;;;18.19;61.18
38880;BME280;25887;30.194;-97.880;2023-11-19T12:41:14;98258.28;;;18.22;60.96
38880;BME280;25887;30.194;-97.880;2023-11-19T12:43:43;98264.41;;;18.19;61.00
38880;BME280;25887;30.194;-97.880;2023-11-19T12:46:23;98265.22;;;18.21;61.38
38880;BME280;25887;30.194;-97.880;2023-11-19T12:48:50;98269.53;;;18.22;61.11
38880;BME280;25887;30.194;-97.880;2023-11-19T12:51:17;98266.03;;;18.23;61.15
38880;BME280;25887;30.194;-97.880;2023-11-19T12:53:52;98262.56;;;18.23;61.33
38880;BME280;25887;30.194;-97.880;2023-11-19T12:56:26;98266.09;;;18.22;61.20
38880;BME280;25887;30.194;-97.880;2023-11-19T12:58:53;98263.50;;;18.20;61.37
38880;BME280;25887;30.194;-97.880;2023-11-19T13:01:20;98254.00;;;18.19;61.48
38880;BME280;25887;30.194;-97.880;2023-11-19T13:03:47;98260.97;;;18.19;61.42
38880;BME280;25887;30.194;-97.880;2023-11-19T13:06:21;98272.97;;;18.23;61.66
38880;BME280;25887;30.194;-97.880;2023-11-19T13:09:05;98269.53;;;18.22;61.66
38880;BME280;25887;30.194;-97.880;2023-11-19T13:11:36;98273.88;;;18.22;61.72
38880;BME280;25887;30.194;-97.880;2023-11-19T13:14:04;98285.06;;;18.24;61.73
38880;BME280;25887;30.194;-97.880;2023-11-19T14:15:53;98264.06;;;18.30;62.67
38880;BME280;25887;30.194;-97.880;2023-11-19T14:18:19;98248.50;;;18.28;62.89
38880;BME280;25887;30.194;-97.880;2023-11-19T14:20:47;98244.91;;;18.32;62.93
38880;BME280;25887;30.194;-97.880;2023-11-19T14:23:13;98250.00;;;18.35;63.00
38880;BME280;25887;30.194;-97.880;2023-11-19T14:25:40;98249.06;;;18.38;63.26
38880;BME280;25887;30.194;-97.880;2023-11-19T14:28:08;98242.91;;;18.41;63.31
38880;BME280;25887;30.194;-97.880;2023-11-19T14:30:34;98245.44;;;18.42;63.45
38880;BME280;25887;30.194;-97.880;2023-11-19T14:33:00;98238.41;;;18.46;63.41
38880;BME280;25887;30.194;-97.880;2023-11-19T14:35:27;98228.78;;;18.48;63.62
38880;BME280;25887;30.194;-97.880;2023-11-19T14:37:53;98212.28;;;18.49;63.84
38880;BME280;25887;30.194;-97.880;2023-11-19T14:40:19;98200.03;;;18.52;64.13
38880;BME280;25887;30.194;-97.880;2023-11-19T14:42:45;98182.66;;;18.53;64.35
38880;BME280;25887;30.194;-97.880;2023-11-19T14:45:11;98199.97;;;18.54;64.64
38880;BME280;25887;30.194;-97.880;2023-11-19T14:47:40;98207.66;;;18.57;64.69
38880;BME280;25887;30.194;-97.880;2023-11-19T14:50:07;98221.44;;;18.59;64.75
38880;BME280;25887;30.194;-97.880;2023-11-19T14:52:35;98230.06;;;18.61;64.79
38880;BME280;25887;30.194;-97.880;2023-11-19T14:55:15;98232.53;;;18.65;64.74
38880;BME280;25887;30.194;-97.880;2023-11-19T14:57:41;98244.63;;;18.67;64.57
38880;BME280;25887;30.194;-97.880;2023-11-19T15:00:10;98255.81;;;18.70;64.69
38880;BME280;25887;30.194;-97.880;2023-11-19T15:02:40;98267.00;;;18.72;64.77
38880;BME280;25887;30.194;-97.880;2023-11-19T15:05:07;98273.81;;;18.76;64.86
38880;BME280;25887;30.194;-97.880;2023-11-19T15:07:36;98282.28;;;18.81;64.58
38880;BME280;25887;30.194;-97.880;2023-11-19T15:10:04;98282.22;;;18.83;64.76
38880;BME280;25887;30.194;-97.880;2023-11-19T15:12:36;98283.00;;;18.86;64.72
38880;BME280;25887;30.194;-97.880;2023-11-19T15:15:09;98291.59;;;18.88;64.85
38880;BME280;25887;30.194;-97.880;2023-11-19T15:17:36;98296.72;;;18.91;64.68
38880;BME280;25887;30.194;-97.880;2023-11-19T15:20:03;98286.28;;;18.91;64.79
38880;BME280;25887;30.194;-97.880;2023-11-19T15:22:31;98280.91;;;18.96;64.93
38880;BME280;25887;30.194;-97.880;2023-11-19T15:24:59;98264.31;;;18.99;65.01
38880;BME280;25887;30.194;-97.880;2023-11-19T15:27:33;98259.09;;;18.99;65.26
38880;BME280;25887;30.194;-97.880;2023-11-19T15:30:18;98259.81;;;19.04;65.04
38880;BME280;25887;30.194;-97.880;2023-11-19T15:32:45;98256.41;;;19.02;65.10
38880;BME280;25887;30.194;-97.880;2023-11-19T15:35:11;98232.97;;;19.02;65.33
38880;BME280;25887;30.194;-97.880;2023-11-19T15:37:38;98233.78;;;19.04;65.27
38880;BME280;25887;30.194;-97.880;2023-11-19T15:40:07;98249.38;;;19.04;65.58
38880;BME280;25887;30.194;-97.880;2023-11-19T15:42:35;98262.34;;;19.05;65.47
38880;BME280;25887;30.194;-97.880;2023-11-19T15:45:01;98265.81;;;19.06;65.51
38880;BME280;25887;30.194;-97.880;2023-11-19T15:47:32;98273.41;;;19.12;65.33
38880;BME280;25887;30.194;-97.880;2023-11-19T15:50:00;98270.72;;;19.13;65.49
38880;BME280;25887;30.194;-97.880;2023-11-19T15:52:26;98281.06;;;19.16;65.38
38880;BME280;25887;30.194;-97.880;2023-11-19T15:54:53;98287.91;;;19.19;65.45
38880;BME280;25887;30.194;-97.880;2023-11-19T15:57:19;98291.25;;;19.23;65.41
38880;BME280;25887;30.194;-97.880;2023-11-19T15:59:45;98287.75;;;19.24;65.42
38880;BME280;25887;30.194;-97.880;2023-11-19T16:02:11;98298.88;;;19.27;65.33
38880;BME280;25887;30.194;-97.880;2023-11-19T16:04:37;98298.78;;;19.30;65.45
38880;BME280;25887;30.194;-97.880;2023-11-19T16:07:04;98287.47;;;19.31;65.56